createdAt,value
2017-12-23T22:20:03.086Z,18.1
2017-12-23T22:21:05.639Z,17.5
2017-12-23T22:22:10.635Z,16.7
2017-12-23T22:23:19.032Z,16.2
2017-12-23T22:24:26.395Z,16
2017-12-23T22:25:28.843Z,15.8
2017-12-23T22:26:31.418Z,15.7
2017-12-23T22:27:33.898Z,15.5
2017-12-23T22:28:50.595Z,15.4
2017-12-23T22:30:06.267Z,15.2
2017-12-23T22:31:22.535Z,15.2
2017-12-23T22:32:27.514Z,15.1
2017-12-23T22:33:39.934Z,15
2017-12-23T22:34:49.039Z,15
2017-12-23T22:35:56.775Z,15.1
2017-12-23T22:37:04.851Z,15.1
2017-12-23T22:38:11.717Z,15
2017-12-23T22:39:19.282Z,14.9
2017-12-23T22:40:30.578Z,14.8
2017-12-23T22:41:35.517Z,14.6
2017-12-23T22:42:50.224Z,14.7
2017-12-23T22:43:58.499Z,14.8
2017-12-23T22:45:02.709Z,14.7
2017-12-23T22:46:09.692Z,14.7
2017-12-23T22:47:17.268Z,14.6
2017-12-23T22:48:25.859Z,14.5
2017-12-23T22:49:28.350Z,14.5
2017-12-23T22:50:30.808Z,14.6
2017-12-23T22:51:33.487Z,14.6
2017-12-23T22:52:36.380Z,14.6
2017-12-23T22:53:39.030Z,14.6
2017-12-23T22:54:41.575Z,14.4
2017-12-23T22:55:44.261Z,14.3
2017-12-23T22:56:46.809Z,14.3
2017-12-23T22:57:49.533Z,14.4
2017-12-23T22:58:52.166Z,14.4
2017-12-23T22:59:54.753Z,14.3
2017-12-23T23:00:57.566Z,14.1
2017-12-23T23:02:00.122Z,14.4
2017-12-23T23:03:02.640Z,14.3
2017-12-23T23:04:05.259Z,14.2
2017-12-23T23:05:12.942Z,14.1
2017-12-23T23:06:15.422Z,14.4
2017-12-23T23:07:18.903Z,14.5
2017-12-23T23:08:21.959Z,14.4
2017-12-23T23:09:24.435Z,14.5
2017-12-23T23:10:27.034Z,14.5
2017-12-23T23:11:29.638Z,14.3
2017-12-23T23:12:32.203Z,14.2
2017-12-23T23:13:34.755Z,14.3
2017-12-23T23:14:37.387Z,14.2
2017-12-23T23:15:39.913Z,14.2
2017-12-23T23:16:42.407Z,14.3
2017-12-23T23:17:45.339Z,14.4
2017-12-23T23:18:48.620Z,14.3
2017-12-23T23:19:51.430Z,14.3
2017-12-23T23:20:54.004Z,14.3
2017-12-23T23:21:56.625Z,14.2
2017-12-23T23:23:04.274Z,14.2
2017-12-23T23:24:07.080Z,14.3
2017-12-23T23:25:09.908Z,14.3
2017-12-23T23:26:12.517Z,14.1
2017-12-23T23:27:15.005Z,14.3
2017-12-23T23:28:17.882Z,14.3
2017-12-23T23:29:20.342Z,14.3
2017-12-23T23:30:22.966Z,14.2
2017-12-23T23:31:25.666Z,14.2
2017-12-23T23:32:28.234Z,14
2017-12-23T23:33:39.571Z,14.2
2017-12-23T23:34:42.208Z,14.3
2017-12-23T23:35:44.724Z,14.3
2017-12-23T23:36:47.292Z,14.1
2017-12-23T23:37:49.743Z,14
2017-12-23T23:38:57.598Z,14.1
2017-12-23T23:40:00.067Z,14.2
2017-12-23T23:41:02.740Z,14.2
2017-12-23T23:42:05.213Z,14.2
2017-12-23T23:43:07.756Z,13.9
2017-12-23T23:44:10.200Z,13.8
2017-12-23T23:45:12.669Z,14
2017-12-23T23:46:15.165Z,14
2017-12-23T23:47:17.622Z,13.9
2017-12-23T23:48:20.236Z,13.9
2017-12-23T23:49:22.809Z,13.9
2017-12-23T23:50:25.264Z,13.9
2017-12-23T23:51:27.946Z,13.8
2017-12-23T23:52:30.555Z,13.9
2017-12-23T23:53:33.029Z,13.8
2017-12-23T23:54:35.620Z,13.8
2017-12-23T23:55:38.233Z,13.8
2017-12-23T23:56:40.743Z,14
2017-12-23T23:57:43.148Z,14
2017-12-23T23:58:45.682Z,13.7
2017-12-23T23:59:48.185Z,13.6
